Time;durP1;ratioP1;P1;durP2;ratioP2;P2;SDS_P1;SDS_P2;PMS_P1;PMS_P2;Temp;Humidity;BMP_temperature;BMP_pressure;BME280_temperature;BME280_humidity;BME280_pressure;Samples;Min_cycle;Max_cycle;Signal;HPM_P1;HPM_P2
2023/05/21 00:01:00;;;;;;;38.28;24.00;;;;;;;11.84;100.00;92646.19;2531898;23;20005;-80
2023/05/21 00:02:02;;;;;;;34.03;22.80;;;;;;;11.80;100.00;92651.63;2556509;23;20174;-81
2023/05/21 00:03:03;;;;;;;41.80;23.25;;;;;;;11.79;100.00;92646.72;2555807;23;20324;-82
2023/05/21 00:04:06;;;;;;;36.00;23.15;;;;;;;11.74;100.00;92634.63;2543784;23;20006;-81
2023/05/21 00:05:10;;;;;;;33.95;22.42;;;;;;;11.71;100.00;92645.47;2543897;23;20001;-81
2023/05/21 00:06:14;;;;;;;39.78;23.65;;;;;;;11.67;100.00;92650.94;2543804;23;20275;-82
2023/05/21 00:07:15;;;;;;;38.78;23.17;;;;;;;11.65;100.00;92644.53;2544389;23;20101;-82
2023/05/21 00:08:16;;;;;;;36.72;22.05;;;;;;;11.64;100.00;92649.13;2543650;23;20364;-81
2023/05/21 00:09:17;;;;;;;37.00;22.73;;;;;;;11.65;100.00;92647.94;2555914;23;20076;-79
2023/05/21 00:10:18;;;;;;;37.35;22.23;;;;;;;11.63;100.00;92642.25;2568281;23;20009;-79
2023/05/21 00:11:19;;;;;;;32.35;21.55;;;;;;;11.66;100.00;92646.00;2543692;23;20012;-79
2023/05/21 00:12:20;;;;;;;37.22;22.98;;;;;;;11.64;100.00;92637.69;2543553;23;20447;-80
2023/05/21 00:13:21;;;;;;;37.58;23.90;;;;;;;11.65;100.00;92636.50;2531387;23;20006;-79
2023/05/21 00:14:22;;;;;;;40.13;22.98;;;;;;;11.64;100.00;92635.75;2531547;23;20001;-80
2023/05/21 00:15:23;;;;;;;35.08;22.25;;;;;;;11.61;100.00;92639.28;2531336;23;20334;-80
2023/05/21 00:16:24;;;;;;;37.72;22.75;;;;;;;11.65;100.00;92634.56;2543911;23;20012;-81
2023/05/21 00:17:26;;;;;;;48.22;22.60;;;;;;;11.68;100.00;92639.06;2555698;23;20470;-81
2023/05/21 00:18:27;;;;;;;34.47;22.33;;;;;;;11.65;100.00;92639.16;2556022;23;20005;-80
2023/05/21 00:19:28;;;;;;;34.58;22.80;;;;;;;11.62;100.00;92632.75;2555842;23;20007;-82
2023/05/21 00:20:31;;;;;;;37.75;22.83;;;;;;;11.54;100.00;92637.59;2568007;23;20012;-80
2023/05/21 00:21:32;;;;;;;35.20;22.60;;;;;;;11.53;100.00;92640.69;2543298;23;20016;-80
2023/05/21 00:22:35;;;;;;;35.00;23.27;;;;;;;11.50;100.00;92639.66;2531477;23;20009;-82
2023/05/21 00:23:36;;;;;;;40.00;22.88;;;;;;;11.52;100.00;92637.28;2531794;23;20010;-82
2023/05/21 00:24:37;;;;;;;36.15;23.10;;;;;;;11.56;100.00;92643.25;2543175;23;20471;-81
2023/05/21 00:25:38;;;;;;;35.20;22.70;;;;;;;11.57;100.00;92635.97;2555621;23;20059;-80
2023/05/21 00:26:41;;;;;;;38.15;23.45;;;;;;;11.54;100.00;92637.59;2567939;23;20486;-82
2023/05/21 00:27:45;;;;;;;35.63;22.60;;;;;;;11.54;100.00;92636.84;2567179;23;20015;-82
2023/05/21 00:28:47;;;;;;;35.42;23.60;;;;;;;11.50;100.00;92642.31;2555640;23;20020;-81
2023/05/21 00:29:51;;;;;;;36.38;22.73;;;;;;;11.50;100.00;92628.19;2531479;23;20005;-80
2023/05/21 00:30:51;;;;;;;35.25;22.42;;;;;;;11.49;100.00;92627.44;2531946;23;20029;-79
2023/05/21 00:31:53;;;;;;;37.78;23.48;;;;;;;11.50;100.00;92634.31;2543298;23;19998;-80
2023/05/21 00:32:57;;;;;;;35.50;23.92;;;;;;;11.48;100.00;92625.94;2543446;23;20048;-80
2023/05/21 00:33:58;;;;;;;39.42;23.55;;;;;;;11.50;100.00;92626.28;2543012;23;20123;-80
2023/05/21 00:34:59;;;;;;;40.72;24.23;;;;;;;11.48;100.00;92628.63;2555817;23;20036;-80
2023/05/21 00:36:01;;;;;;;37.05;24.17;;;;;;;11.50;100.00;92628.94;2555471;23;20005;-82
2023/05/21 00:37:03;;;;;;;38.70;24.15;;;;;;;11.48;100.00;92628.63;2543241;23;20048;-81
2023/05/21 00:38:06;;;;;;;39.38;22.80;;;;;;;11.45;100.00;92629.47;2561246;23;20507;-80
2023/05/21 00:39:07;;;;;;;33.50;22.30;;;;;;;11.46;100.00;92628.31;2567820;23;20112;-80
2023/05/21 00:40:10;;;;;;;36.22;23.40;;;;;;;11.45;100.00;92626.78;2543178;23;20006;-82
2023/05/21 00:41:13;;;;;;;38.63;23.52;;;;;;;11.42;100.00;92633.03;2543974;23;20068;-82
2023/05/21 00:42:16;;;;;;;42.40;24.02;;;;;;;11.42;100.00;92616.97;2567292;23;20043;-82
2023/05/21 00:43:18;;;;;;;34.70;22.67;;;;;;;11.49;100.00;92626.69;2556210;23;20008;-82
2023/05/21 00:44:19;;;;;;;38.67;22.67;;;;;;;11.52;100.00;92620.47;2567707;23;20011;-81
2023/05/21 00:45:22;;;;;;;38.20;24.33;;;;;;;11.52;100.00;92628.50;2555472;23;20020;-82
2023/05/21 00:46:23;;;;;;;39.28;23.95;;;;;;;11.46;100.00;92627.56;2556188;23;20444;-82
2023/05/21 00:47:28;;;;;;;33.88;22.05;;;;;;;11.44;100.00;92617.28;2555311;23;20080;-82
2023/05/21 00:48:31;;;;;;;35.95;23.13;;;;;;;11.46;100.00;92616.88;2567884;23;20014;-82
2023/05/21 00:49:32;;;;;;;38.33;22.70;;;;;;;11.46;100.00;92617.59;2555283;23;20028;-80
2023/05/21 00:50:35;;;;;;;33.75;22.10;;;;;;;11.49;100.00;92621.34;2554906;23;20342;-79
2023/05/21 00:51:36;;;;;;;35.10;22.13;;;;;;;11.42;100.00;92621.59;2566871;23;20008;-81
2023/05/21 00:52:40;;;;;;;32.90;21.70;;;;;;;11.30;100.00;92621.16;2555505;23;20005;-80
2023/05/21 00:53:44;;;;;;;40.00;23.50;;;;;;;11.30;100.00;92620.44;2556147;23;20011;-80
2023/05/21 00:54:48;;;;;;;37.53;23.17;;;;;;;11.25;100.00;92619.06;2543975;23;20005;-82
2023/05/21 00:55:49;;;;;;;30.88;20.95;;;;;;;11.30;100.00;92617.75;2543774;23;20005;-82
2023/05/21 00:56:51;;;;;;;31.70;20.85;;;;;;;11.21;100.00;92617.66;2555133;23;20005;-82
2023/05/21 00:57:52;;;;;;;31.33;20.85;;;;;;;11.16;100.00;92610.94;2568023;23;20075;-82
2023/05/21 00:58:56;;;;;;;30.10;20.92;;;;;;;11.13;100.00;92619.06;2568626;23;20462;-80
2023/05/21 00:59:57;;;;;;;32.58;21.20;;;;;;;11.10;100.00;92618.75;2567400;23;20095;-80
2023/05/21 01:01:02;;;;;;;37.00;21.48;;;;;;;11.10;100.00;92621.41;2554329;23;20079;-81
2023/05/21 01:02:05;;;;;;;33.33;22.35;;;;;;;11.05;100.00;92619.28;2556348;23;20008;-80
2023/05/21 01:03:06;;;;;;;38.97;22.65;;;;;;;11.02;100.00;92616.75;2556027;23;20005;-82
2023/05/21 01:04:07;;;;;;;40.13;21.70;;;;;;;11.02;100.00;92617.50;2568034;23;20008;-82
2023/05/21 01:05:09;;;;;;;34.15;22.27;;;;;;;10.96;100.00;92618.44;2555407;23;20013;-81
2023/05/21 01:06:12;;;;;;;31.58;20.85;;;;;;;10.92;100.00;92618.56;2555715;23;20004;-79
2023/05/21 01:07:13;;;;;;;32.67;20.80;;;;;;;11.00;100.00;92616.41;2555426;23;20011;-81
2023/05/21 01:08:14;;;;;;;33.65;21.38;;;;;;;10.92;100.00;92609.78;2555468;23;20028;-81
2023/05/21 01:09:24;;;;;;;36.13;21.35;;;;;;;10.87;100.00;92619.09;2554569;23;20431;-82
2023/05/21 01:10:46;;;;;;;36.17;20.65;;;;;;;10.81;100.00;92618.16;2544365;23;20100;-82
2023/05/21 01:11:50;;;;;;;29.77;19.98;;;;;;;10.80;100.00;92614.00;2559877;23;20024;-80
2023/05/21 01:12:53;;;;;;;29.88;19.08;;;;;;;10.81;100.00;92612.81;2568605;23;20015;-80
2023/05/21 01:13:54;;;;;;;32.88;20.85;;;;;;;10.77;100.00;92614.84;2567796;23;20169;-82
2023/05/21 01:14:58;;;;;;;32.13;21.63;;;;;;;10.83;100.00;92605.84;2543391;23;20002;-81
2023/05/21 01:16:00;;;;;;;34.80;22.00;;;;;;;10.80;100.00;92611.31;2556206;23;20076;-81
2023/05/21 01:17:05;;;;;;;33.03;20.83;;;;;;;10.77;100.00;92607.56;2543113;23;20013;-81
2023/05/21 01:18:06;;;;;;;36.55;22.15;;;;;;;10.73;100.00;92606.19;2556018;23;20072;-82
2023/05/21 01:19:13;;;;;;;36.40;21.83;;;;;;;10.71;100.00;92603.94;2567943;23;20001;-80
2023/05/21 01:20:19;;;;;;;32.60;20.48;;;;;;;10.70;100.00;92607.78;2555997;23;20059;-81
2023/05/21 01:21:24;;;;;;;32.05;21.17;;;;;;;10.70;100.00;92615.03;2544265;23;20455;-81
2023/05/21 01:22:31;;;;;;;34.50;21.63;;;;;;;10.67;100.00;92599.84;2543683;23;20437;-80
2023/05/21 01:23:32;;;;;;;34.33;20.92;;;;;;;10.78;100.00;92608.31;2545169;23;20160;-82
2023/05/21 01:24:34;;;;;;;33.63;21.92;;;;;;;10.79;100.00;92601.78;2555444;23;20017;-82
2023/05/21 01:25:35;;;;;;;36.38;21.63;;;;;;;10.73;100.00;92604.25;2567801;23;20063;-81
2023/05/21 01:26:37;;;;;;;33.20;20.95;;;;;;;10.69;100.00;92597.50;2567739;23;20051;-81
2023/05/21 01:27:40;;;;;;;32.33;22.08;;;;;;;10.67;100.00;92600.63;2567494;23;20004;-81
2023/05/21 01:28:41;;;;;;;35.20;21.73;;;;;;;10.69;100.00;92598.25;2567579;23;20031;-82
2023/05/21 01:29:44;;;;;;;35.00;22.77;;;;;;;10.68;100.00;92601.38;2555283;23;20074;-82
2023/05/21 01:30:47;;;;;;;35.10;22.10;;;;;;;10.64;100.00;92598.06;2567277;23;20011;-82
2023/05/21 01:32:10;;;;;;;30.27;20.27;;;;;;;10.63;100.00;92593.88;2567592;23;20019;-80
2023/05/21 01:33:16;;;;;;;30.58;19.92;;;;;;;10.61;100.00;92594.31;2555042;23;20036;-82
2023/05/21 01:34:21;;;;;;;31.58;19.88;;;;;;;10.61;100.00;92590.88;2556933;23;20009;-81
2023/05/21 01:35:29;;;;;;;31.27;20.30;;;;;;;10.60;100.00;92600.84;2579202;23;20423;-80
2023/05/21 01:36:39;;;;;;;31.33;20.60;;;;;;;10.57;100.00;92594.41;2580366;23;20014;-82
2023/05/21 01:37:41;;;;;;;;;;;;;;;10.61;100.00;92594.31;2578388;23;20259;-80
2023/05/21 01:38:51;;;;;;;29.58;19.73;;;;;;;10.63;100.00;92591.22;2568030;23;19915;-80
2023/05/21 01:40:03;;;;;;;29.70;20.13;;;;;;;10.66;100.00;92593.00;2578490;23;20020;-83
2023/05/21 01:41:11;;;;;;;29.33;20.58;;;;;;;10.65;100.00;92592.28;2567206;23;20431;-84
2023/05/21 01:42:14;;;;;;;30.02;19.83;;;;;;;10.70;100.00;92585.63;2544329;23;20338;-80
2023/05/21 01:43:17;;;;;;;38.22;21.48;;;;;;;10.68;100.00;92585.34;2543755;23;20459;-79
2023/05/21 01:44:24;;;;;;;34.25;20.63;;;;;;;10.63;100.00;92593.88;2543453;23;20044;-80
2023/05/21 01:45:27;;;;;;;30.50;20.23;;;;;;;10.61;100.00;92594.31;2556335;23;20009;-82
2023/05/21 01:46:32;;;;;;;30.27;19.80;;;;;;;10.58;100.00;92587.91;2567926;23;20083;-81
2023/05/21 01:47:35;;;;;;;35.60;21.20;;;;;;;10.59;100.00;92592.06;2567543;23;20102;-80
2023/05/21 01:48:37;;;;;;;30.73;20.27;;;;;;;10.61;100.00;92593.56;2555876;23;20005;-81
2023/05/21 01:49:39;;;;;;;28.20;20.50;;;;;;;10.55;100.00;92590.69;2543376;23;20005;-80
2023/05/21 01:50:42;;;;;;;33.28;21.35;;;;;;;10.53;100.00;92585.75;2555151;23;20067;-80
2023/05/21 01:51:44;;;;;;;30.95;20.60;;;;;;;10.55;100.00;92583.41;2555559;23;20012;-82
2023/05/21 01:52:52;;;;;;;32.78;21.17;;;;;;;10.51;100.00;92584.69;2555350;23;20040;-80
2023/05/21 01:53:53;;;;;;;34.38;21.40;;;;;;;10.51;100.00;92590.03;2555570;23;20005;-82
2023/05/21 01:54:56;;;;;;;33.53;20.40;;;;;;;10.51;100.00;92582.03;2556271;23;20001;-79
2023/05/21 01:55:58;;;;;;;29.20;20.02;;;;;;;10.52;100.00;92581.59;2555566;23;20051;-79
2023/05/21 01:57:00;;;;;;;33.88;20.08;;;;;;;10.54;100.00;92578.50;2555738;23;20001;-82
2023/05/21 01:58:01;;;;;;;32.50;21.65;;;;;;;10.53;100.00;92577.72;2555491;23;20033;-82
2023/05/21 01:59:02;;;;;;;35.17;21.85;;;;;;;10.54;100.00;92581.16;2555599;23;20421;-80
2023/05/21 02:00:04;;;;;;;32.55;21.60;;;;;;;10.58;100.00;92579.16;2555858;23;20008;-82
2023/05/21 02:01:06;;;;;;;36.58;23.45;;;;;;;10.56;100.00;92579.56;2567670;23;20062;-80
2023/05/21 02:02:07;;;;;;;34.83;22.70;;;;;;;10.56;100.00;92576.88;2580302;23;20015;-82
2023/05/21 02:03:07;;;;;;;35.47;22.88;;;;;;;10.53;100.00;92572.38;2580492;23;20054;-82
2023/05/21 02:04:08;;;;;;;37.15;22.08;;;;;;;10.54;100.00;92576.56;2555544;23;20024;-82
2023/05/21 02:05:11;;;;;;;34.47;23.38;;;;;;;10.59;100.00;92576.03;2530766;23;20077;-80
2023/05/21 02:06:13;;;;;;;37.53;22.33;;;;;;;10.61;100.00;92572.91;2555384;23;20020;-82
2023/05/21 02:07:14;;;;;;;31.20;21.50;;;;;;;10.61;100.00;92578.28;2567643;23;20039;-80
2023/05/21 02:08:18;;;;;;;34.72;21.75;;;;;;;10.64;100.00;92577.41;2555120;23;20005;-82
2023/05/21 02:09:20;;;;;;;33.78;22.85;;;;;;;10.75;100.00;92569.81;2555696;23;20012;-83
2023/05/21 02:10:22;;;;;;;34.15;22.35;;;;;;;10.78;100.00;92576.22;2554240;23;20257;-79
2023/05/21 02:11:23;;;;;;;36.78;23.63;;;;;;;10.77;100.00;92574.75;2554955;23;20379;-83
2023/05/21 02:12:24;;;;;;;36.20;24.00;;;;;;;10.77;100.00;92566.72;2555059;23;20009;-82
2023/05/21 02:13:25;;;;;;;37.20;24.23;;;;;;;10.75;100.00;92574.41;2567514;23;20320;-79
2023/05/21 02:14:26;;;;;;;36.75;24.20;;;;;;;10.77;100.00;92572.06;2567971;23;20007;-82
2023/05/21 02:15:27;;;;;;;37.22;24.73;;;;;;;10.81;100.00;92572.69;2567311;23;20470;-82
2023/05/21 02:16:28;;;;;;;35.15;23.63;;;;;;;10.81;100.00;92572.69;2567841;23;20004;-81
2023/05/21 02:17:32;;;;;;;35.95;22.38;;;;;;;10.81;100.00;92575.38;2580065;23;20427;-80
2023/05/21 02:18:35;;;;;;;32.00;22.13;;;;;;;10.81;100.00;92567.34;2569148;23;20470;-79
2023/05/21 02:21:16;;;;;;;;;;;;;;;10.64;100.00;92572.06;2149916;27;20179;-79
2023/05/21 02:22:18;;;;;;;29.95;21.20;;;;;;;10.66;100.00;92574.31;2144731;27;19910;-81
2023/05/21 02:23:20;;;;;;;32.95;21.30;;;;;;;10.62;100.00;92573.66;2134070;27;20019;-81
2023/05/21 02:24:23;;;;;;;29.05;20.23;;;;;;;10.64;100.00;92571.31;2123349;27;20106;-82
2023/05/21 02:25:24;;;;;;;30.58;21.27;;;;;;;10.62;100.00;92573.66;2130419;27;20031;-82
2023/05/21 02:26:26;;;;;;;31.77;21.55;;;;;;;10.60;100.00;92576.78;2121456;28;20031;-81
2023/05/21 02:27:30;;;;;;;29.83;20.45;;;;;;;10.55;100.00;92572.72;2107888;27;20034;-80
2023/05/21 02:28:32;;;;;;;30.23;20.35;;;;;;;10.53;100.00;92572.38;2118380;28;20419;-81
2023/05/21 02:29:33;;;;;;;32.38;20.67;;;;;;;10.50;100.00;92578.59;2120418;28;20027;-82
2023/05/21 02:30:35;;;;;;;27.98;20.55;;;;;;;10.53;100.00;92577.72;2111464;27;20016;-80
2023/05/21 02:31:36;;;;;;;30.50;21.75;;;;;;;10.55;100.00;92572.72;2128278;27;20534;-82
2023/05/21 02:32:41;;;;;;;28.10;20.13;;;;;;;10.53;100.00;92563.63;2128179;27;20031;-80
2023/05/21 02:33:43;;;;;;;34.25;19.80;;;;;;;10.58;100.00;92568.44;2119999;27;20453;-81
2023/05/21 02:34:46;;;;;;;27.20;19.63;;;;;;;10.62;100.00;92571.00;2117535;28;20047;-80
2023/05/21 02:35:47;;;;;;;30.48;20.02;;;;;;;10.53;100.00;92567.03;2118390;27;20030;-80
2023/05/21 02:36:53;;;;;;;30.70;19.90;;;;;;;10.44;100.00;92560.84;2112780;28;20488;-80
2023/05/21 02:37:57;;;;;;;29.02;19.13;;;;;;;10.45;100.00;92565.78;2099616;28;20465;-80
2023/05/21 02:39:00;;;;;;;26.90;19.13;;;;;;;10.47;100.00;92562.66;2119551;27;20418;-80
2023/05/21 02:40:04;;;;;;;27.90;20.80;;;;;;;10.45;100.00;92560.44;2111172;28;20446;-81
2023/05/21 02:41:06;;;;;;;28.98;19.60;;;;;;;10.44;100.00;92564.25;2108846;27;20491;-80
2023/05/21 02:42:07;;;;;;;28.23;19.83;;;;;;;10.48;100.00;92556.88;2110641;28;20028;-80
2023/05/21 02:43:08;;;;;;;26.85;19.63;;;;;;;10.46;100.00;92558.50;2098644;28;20025;-80
2023/05/21 02:44:09;;;;;;;30.35;20.52;;;;;;;10.43;100.00;92557.44;2109650;28;20023;-81
2023/05/21 02:45:12;;;;;;;27.98;20.60;;;;;;;10.41;100.00;92562.47;2110628;28;20028;-80
2023/05/21 02:46:13;;;;;;;25.88;19.50;;;;;;;10.41;100.00;92561.72;2111211;28;20024;-81
2023/05/21 02:47:13;;;;;;;28.45;19.52;;;;;;;10.35;100.00;92564.16;2102359;28;20035;-80
2023/05/21 02:48:15;;;;;;;28.95;20.80;;;;;;;10.32;100.00;92563.09;2106982;28;20021;-79
2023/05/21 02:49:16;;;;;;;27.90;19.33;;;;;;;10.34;100.00;92560.00;2109597;28;20035;-79
2023/05/21 02:50:17;;;;;;;28.08;19.55;;;;;;;10.35;100.00;92556.16;2110698;28;20028;-79
2023/05/21 02:51:18;;;;;;;29.75;19.13;;;;;;;10.31;100.00;92556.25;2111110;28;20421;-82
2023/05/21 02:52:22;;;;;;;27.45;20.02;;;;;;;10.33;100.00;92550.50;2119280;28;20062;-82
2023/05/21 02:53:23;;;;;;;29.35;19.65;;;;;;;10.34;100.00;92566.09;2107141;28;20028;-81
2023/05/21 02:54:24;;;;;;;33.10;21.83;;;;;;;10.44;100.00;92563.53;2101751;28;20036;-79
2023/05/21 02:55:26;;;;;;;31.63;21.42;;;;;;;10.46;100.00;92561.94;2110568;28;20023;-79
2023/05/21 02:56:28;;;;;;;27.42;20.88;;;;;;;10.40;100.00;92555.59;2119455;28;20022;-81
2023/05/21 02:57:29;;;;;;;29.83;19.75;;;;;;;10.40;100.00;92555.59;2102750;28;20013;-82
2023/05/21 02:58:30;;;;;;;28.77;20.50;;;;;;;10.34;100.00;92560.75;2111268;27;20031;-81
2023/05/21 02:59:31;;;;;;;28.27;20.50;;;;;;;10.36;100.00;92552.31;2118266;28;20027;-80
2023/05/21 03:00:32;;;;;;;31.98;20.70;;;;;;;10.41;100.00;92554.44;2106951;28;20695;-82
2023/05/21 03:01:33;;;;;;;29.95;20.45;;;;;;;10.46;100.00;92556.59;2111001;28;20023;-80
2023/05/21 03:02:35;;;;;;;30.08;19.85;;;;;;;10.39;100.00;92551.44;2107506;28;20411;-82
2023/05/21 03:03:36;;;;;;;29.15;21.27;;;;;;;10.37;100.00;92561.09;2110547;28;20020;-81
2023/05/21 03:04:44;;;;;;;30.95;22.02;;;;;;;10.39;100.00;92556.78;2110811;28;20019;-81
2023/05/21 03:05:47;;;;;;;30.00;19.60;;;;;;;10.35;100.00;92550.81;2111394;28;20069;-81
2023/05/21 03:06:53;;;;;;;33.20;21.80;;;;;;;10.33;100.00;92561.91;2114996;28;20019;-82
2023/05/21 03:07:55;;;;;;;31.92;20.70;;;;;;;10.33;100.00;92561.19;2107331;28;20031;-81
2023/05/21 03:08:57;;;;;;;30.52;20.75;;;;;;;10.25;100.00;92555.28;2114827;27;20025;-80
2023/05/21 03:09:58;;;;;;;33.35;20.98;;;;;;;10.23;100.00;92560.31;2106512;28;20026;-81
2023/05/21 03:10:59;;;;;;;29.98;20.73;;;;;;;10.27;100.00;92557.53;2105325;28;20034;-80
2023/05/21 03:12:01;;;;;;;32.05;21.88;;;;;;;10.25;100.00;92559.88;2112124;28;20094;-82
2023/05/21 03:13:03;;;;;;;29.60;21.33;;;;;;;10.22;100.00;92561.44;2110559;28;20023;-82
2023/05/21 03:14:05;;;;;;;29.13;20.85;;;;;;;10.25;100.00;92559.88;2111228;28;20030;-81
2023/05/21 03:15:07;;;;;;;32.38;21.92;;;;;;;10.24;100.00;92553.03;2103026;28;20024;-82
2023/05/21 03:16:10;;;;;;;30.05;21.33;;;;;;;10.19;100.00;92556.22;2110434;27;20455;-80
2023/05/21 03:17:15;;;;;;;29.65;20.50;;;;;;;10.18;100.00;92563.47;2110732;28;20028;-80
2023/05/21 03:18:16;;;;;;;32.10;21.70;;;;;;;10.16;100.00;92557.09;2112020;28;20177;-82
2023/05/21 03:19:17;;;;;;;29.85;20.25;;;;;;;10.17;100.00;92558.56;2110398;28;20019;-80
2023/05/21 03:20:18;;;;;;;32.40;21.45;;;;;;;10.14;100.00;92562.84;2101531;28;20028;-81
2023/05/21 03:21:21;;;;;;;27.80;19.48;;;;;;;10.08;100.00;92559.94;2110727;27;20040;-81
2023/05/21 03:22:22;;;;;;;32.05;21.27;;;;;;;10.12;100.00;92557.19;2118857;28;20403;-81
2023/05/21 03:23:23;;;;;;;34.53;22.17;;;;;;;10.09;100.00;92550.75;2109192;28;20031;-81
2023/05/21 03:24:25;;;;;;;34.13;20.75;;;;;;;10.08;100.00;92553.84;2102073;28;20395;-78
2023/05/21 03:25:26;;;;;;;27.17;19.45;;;;;;;10.13;100.00;92555.25;2095763;28;20483;-80
2023/05/21 03:26:28;;;;;;;26.35;19.40;;;;;;;10.07;100.00;92555.78;2106617;28;20107;-81
2023/05/21 03:27:29;;;;;;;28.80;19.92;;;;;;;10.08;100.00;92553.84;2106602;28;20033;-80
2023/05/21 03:28:30;;;;;;;31.90;20.52;;;;;;;10.06;100.00;92550.88;2106692;28;20563;-80
2023/05/21 03:29:33;;;;;;;29.10;20.48;;;;;;;10.06;100.00;92558.88;2100695;28;20028;-80
2023/05/21 03:30:35;;;;;;;32.28;21.70;;;;;;;10.02;100.00;92567.00;2102101;28;20396;-79
2023/05/21 03:31:36;;;;;;;27.20;20.60;;;;;;;9.95;100.00;92555.75;2110001;28;20042;-80
2023/05/21 03:32:40;;;;;;;27.65;20.25;;;;;;;9.94;100.00;92562.28;2104482;28;20481;-81
2023/05/21 03:33:43;;;;;;;26.48;19.33;;;;;;;9.95;100.00;92574.44;2101385;28;20086;-80
2023/05/21 03:34:47;;;;;;;26.95;20.67;;;;;;;9.94;100.00;92564.97;2111121;28;20514;-80
2023/05/21 03:35:49;;;;;;;29.95;20.60;;;;;;;9.94;100.00;92563.03;2110415;28;20023;-80
2023/05/21 03:36:51;;;;;;;28.13;21.08;;;;;;;9.89;100.00;92565.47;2113480;28;20034;-80
2023/05/21 03:37:52;;;;;;;27.77;20.05;;;;;;;9.84;100.00;92561.41;2112836;28;20412;-79
2023/05/21 03:38:54;;;;;;;29.10;19.88;;;;;;;9.87;100.00;92560.56;2103455;28;20888;-80
2023/05/21 03:39:55;;;;;;;29.80;21.30;;;;;;;9.86;100.00;92559.06;2088822;28;20094;-81
2023/05/21 03:40:57;;;;;;;28.13;21.13;;;;;;;9.87;100.00;92560.56;2093519;28;20017;-80
2023/05/21 03:41:58;;;;;;;29.83;20.80;;;;;;;9.87;100.00;92560.56;2112818;28;20114;-80
2023/05/21 03:42:59;;;;;;;29.77;21.13;;;;;;;9.90;100.00;92566.97;2104915;28;20028;-80
2023/05/21 03:44:01;;;;;;;34.22;22.00;;;;;;;9.88;100.00;92559.41;2096250;28;20033;-81
2023/05/21 03:45:04;;;;;;;36.53;21.85;;;;;;;9.89;100.00;92557.47;2108150;28;20024;-81
2023/05/21 03:46:05;;;;;;;30.60;22.08;;;;;;;9.93;100.00;92566.88;2103163;28;20516;-81
2023/05/21 03:47:06;;;;;;;32.47;21.88;;;;;;;9.94;100.00;92560.34;2104119;28;20460;-81
2023/05/21 03:48:07;;;;;;;33.13;22.00;;;;;;;9.87;100.00;92557.13;2113184;28;20027;-81
2023/05/21 03:49:08;;;;;;;33.70;21.92;;;;;;;9.90;100.00;92559.72;2104677;28;20035;-80
2023/05/21 03:50:10;;;;;;;30.90;21.63;;;;;;;9.90;100.00;92559.72;2104946;28;20074;-81
2023/05/21 03:51:12;;;;;;;30.30;22.20;;;;;;;9.89;100.00;92562.81;2111674;28;20015;-81
2023/05/21 03:52:13;;;;;;;33.05;23.75;;;;;;;9.95;100.00;92559.19;2110822;28;20660;-80
2023/05/21 03:53:14;;;;;;;31.30;22.95;;;;;;;9.95;100.00;92564.53;2101406;28;20415;-81
2023/05/21 03:54:15;;;;;;;33.50;22.75;;;;;;;9.93;100.00;92558.13;2103021;28;20024;-81
2023/05/21 03:55:16;;;;;;;31.90;22.38;;;;;;;9.86;100.00;92560.97;2096096;28;20115;-81
2023/05/21 03:56:17;;;;;;;33.47;21.58;;;;;;;9.78;100.00;92563.84;2104248;28;20027;-81
2023/05/21 03:57:18;;;;;;;31.45;21.80;;;;;;;9.76;100.00;92568.13;2092518;28;20017;-79
2023/05/21 03:58:23;;;;;;;33.20;21.88;;;;;;;9.81;100.00;92571.00;2101111;28;20103;-81
2023/05/21 03:59:25;;;;;;;35.13;21.70;;;;;;;9.83;100.00;92571.34;2113147;28;20024;-80
2023/05/21 04:00:26;;;;;;;28.52;20.75;;;;;;;9.81;100.00;92572.94;2099887;28;20024;-81
2023/05/21 04:01:27;;;;;;;29.25;21.48;;;;;;;9.81;100.00;92572.94;2113099;28;20072;-80
2023/05/21 04:02:28;;;;;;;30.98;21.58;;;;;;;9.82;100.00;92569.81;2110717;28;20120;-81
2023/05/21 04:03:31;;;;;;;29.73;21.02;;;;;;;9.81;100.00;92570.25;2097232;28;20127;-82
2023/05/21 04:04:35;;;;;;;32.03;21.40;;;;;;;9.77;100.00;92566.94;2104017;28;20266;-81
2023/05/21 04:05:36;;;;;;;30.42;22.08;;;;;;;9.80;100.00;92568.78;2104135;28;20024;-80
2023/05/21 04:06:37;;;;;;;30.20;20.55;;;;;;;9.78;100.00;92573.78;2102186;28;20676;-81
2023/05/21 04:07:38;;;;;;;30.95;21.10;;;;;;;9.77;100.00;92578.38;2102644;28;20019;-81
2023/05/21 04:08:40;;;;;;;31.55;21.83;;;;;;;9.80;100.00;92576.78;2092627;28;20012;-81
2023/05/21 04:09:41;;;;;;;31.25;22.25;;;;;;;9.80;100.00;92571.44;2102886;28;20027;-80
2023/05/21 04:10:42;;;;;;;30.30;21.13;;;;;;;9.77;100.00;92578.38;2107891;28;20023;-81
2023/05/21 04:11:46;;;;;;;28.45;21.60;;;;;;;9.81;100.00;92580.94;2096392;28;20058;-80
2023/05/21 04:12:51;;;;;;;28.42;21.65;;;;;;;9.76;100.00;92571.53;2104659;28;20024;-81
2023/05/21 04:13:52;;;;;;;29.45;21.02;;;;;;;9.76;100.00;92576.13;2112657;28;20119;-81
2023/05/21 04:14:53;;;;;;;30.50;21.58;;;;;;;9.81;100.00;92578.28;2104969;28;20040;-80
2023/05/21 04:15:54;;;;;;;32.95;22.42;;;;;;;9.80;100.00;92585.53;2104268;28;20497;-80
2023/05/21 04:16:55;;;;;;;30.80;21.77;;;;;;;9.80;100.00;92576.78;2104620;28;20051;-79
2023/05/21 04:17:57;;;;;;;34.83;23.48;;;;;;;9.78;100.00;92579.84;2100765;28;20036;-80
2023/05/21 04:18:58;;;;;;;32.00;21.92;;;;;;;9.78;100.00;92581.78;2096021;28;20028;-81
2023/05/21 04:19:59;;;;;;;36.13;22.67;;;;;;;9.73;100.00;92579.63;2096426;28;20021;-82
2023/05/21 04:21:00;;;;;;;32.65;21.77;;;;;;;9.76;100.00;92586.81;2104030;28;20048;-81
2023/05/21 04:22:02;;;;;;;28.75;21.55;;;;;;;9.79;100.00;92583.28;2104430;28;20363;-80
2023/05/21 04:23:03;;;;;;;29.23;21.38;;;;;;;9.78;100.00;92585.19;2092566;28;20031;-81
2023/05/21 04:24:05;;;;;;;29.88;21.58;;;;;;;9.79;100.00;92584.03;2103231;28;20092;-81
2023/05/21 04:25:09;;;;;;;27.70;20.85;;;;;;;9.82;100.00;92590.44;2108877;28;20028;-79
2023/05/21 04:26:11;;;;;;;32.50;22.70;;;;;;;9.81;100.00;92580.94;2102167;28;20024;-81
2023/05/21 04:27:12;;;;;;;32.13;22.58;;;;;;;9.85;100.00;92589.59;2085718;28;20047;-80
2023/05/21 04:28:18;;;;;;;32.40;22.25;;;;;;;9.83;100.00;92587.38;2086608;28;20100;-79
2023/05/21 04:29:20;;;;;;;32.58;21.80;;;;;;;9.85;100.00;92586.94;2096560;28;20021;-80
2023/05/21 04:30:22;;;;;;;31.60;22.55;;;;;;;9.82;100.00;92590.44;2103392;28;20028;-81
2023/05/21 04:31:24;;;;;;;33.03;21.70;;;;;;;9.81;100.00;92584.34;2104881;28;20024;-80
2023/05/21 04:32:27;;;;;;;30.27;21.63;;;;;;;9.86;100.00;92590.34;2104490;28;20020;-80
2023/05/21 04:33:29;;;;;;;29.35;22.45;;;;;;;9.90;100.00;92594.41;2084784;28;20025;-81
2023/05/21 04:34:32;;;;;;;33.05;21.38;;;;;;;9.89;100.00;92590.25;2093878;28;20020;-81
2023/05/21 04:35:34;;;;;;;34.63;22.17;;;;;;;9.90;100.00;92593.66;2101950;28;20035;-80
2023/05/21 04:36:35;;;;;;;30.85;20.98;;;;;;;9.90;100.00;92597.09;2112026;28;20294;-80
2023/05/21 04:37:40;;;;;;;30.17;21.10;;;;;;;9.94;100.00;92597.72;2104038;28;20487;-81
2023/05/21 04:38:41;;;;;;;29.98;21.88;;;;;;;9.97;100.00;92602.25;2088713;28;20056;-80
2023/05/21 04:39:43;;;;;;;28.90;21.83;;;;;;;9.98;100.00;92608.31;2094244;28;20020;-81
2023/05/21 04:40:52;;;;;;;33.83;22.48;;;;;;;10.00;100.00;92601.38;2101499;28;20043;-81
2023/05/21 04:41:55;;;;;;;32.58;21.60;;;;;;;9.98;100.00;92603.72;2113154;28;20529;-81
2023/05/21 04:42:56;;;;;;;29.75;21.80;;;;;;;10.01;100.00;92602.16;2104658;28;20059;-79
2023/05/21 04:43:57;;;;;;;29.27;21.80;;;;;;;10.04;100.00;92596.69;2094940;28;20047;-81
2023/05/21 04:45:00;;;;;;;29.98;21.75;;;;;;;10.08;100.00;92602.66;2096155;28;20020;-81
2023/05/21 04:46:02;;;;;;;31.25;22.50;;;;;;;10.12;100.00;92602.56;2095222;28;20476;-80
2023/05/21 04:47:03;;;;;;;34.38;22.75;;;;;;;10.11;100.00;92603.00;2104474;28;20118;-80